TimeCST,TemperatureF,Dew PointF,Humidity,Sea Level PressureIn,VisibilityMPH,Wind Direction,Wind SpeedMPH,Gust SpeedMPH,PrecipitationIn,Events,Conditions,WindDirDegrees,DateUTC
12:53 AM,35.1,19.9,54,30.25,10.0,NNW,3.5,-,N/A,,Clear,330,2014-01-18 06:53:00
1:53 AM,33.1,21.9,64,30.27,10.0,Calm,Calm,-,N/A,,Clear,0,2014-01-18 07:53:00
2:53 AM,33.1,21.9,64,30.27,10.0,NW,3.5,-,N/A,,Clear,310,2014-01-18 08:53:00
3:53 AM,30.0,23.0,75,30.28,10.0,Calm,Calm,-,N/A,,Clear,0,2014-01-18 09:53:00
4:53 AM,30.0,24.1,79,30.30,10.0,Calm,Calm,-,N/A,,Clear,0,2014-01-18 10:53:00
5:53 AM,30.0,24.1,79,30.29,10.0,Calm,Calm,-,N/A,,Clear,0,2014-01-18 11:53:00
6:53 AM,28.9,24.1,82,30.30,10.0,Calm,Calm,-,N/A,,Clear,0,2014-01-18 12:53:00
7:53 AM,33.1,25.0,72,30.32,10.0,Calm,Calm,-,N/A,,Clear,0,2014-01-18 13:53:00
8:53 AM,41.0,23.0,49,30.32,10.0,Calm,Calm,-,N/A,,Clear,0,2014-01-18 14:53:00
9:53 AM,46.0,21.0,37,30.33,10.0,SSE,4.6,-,N/A,,Clear,150,2014-01-18 15:53:00
10:53 AM,48.0,21.9,36,30.31,10.0,SE,5.8,-,N/A,,Clear,140,2014-01-18 16:53:00
11:53 AM,48.9,21.9,35,30.27,10.0,South,8.1,-,N/A,,Clear,170,2014-01-18 17:53:00
12:53 PM,50.0,21.9,33,30.23,10.0,SSE,8.1,-,N/A,,Clear,160,2014-01-18 18:53:00
1:53 PM,51.1,23.0,33,30.21,10.0,SSW,8.1,-,N/A,,Clear,200,2014-01-18 19:53:00
2:53 PM,51.1,28.0,41,30.20,10.0,South,10.4,-,N/A,,Clear,170,2014-01-18 20:53:00
3:53 PM,51.1,28.0,41,30.19,10.0,South,6.9,-,N/A,,Clear,190,2014-01-18 21:53:00
4:53 PM,50.0,30.9,48,30.18,10.0,South,5.8,-,N/A,,Clear,180,2014-01-18 22:53:00
5:53 PM,48.9,32.0,52,30.16,10.0,South,3.5,-,N/A,,Clear,190,2014-01-18 23:53:00
6:53 PM,50.0,35.1,57,30.16,10.0,SSW,8.1,-,N/A,,Clear,200,2014-01-19 00:53:00
7:53 PM,50.0,33.1,52,30.15,10.0,SSW,6.9,-,N/A,,Clear,210,2014-01-19 01:53:00
8:53 PM,50.0,36.0,59,30.16,10.0,SW,6.9,-,N/A,,Clear,220,2014-01-19 02:53:00
9:53 PM,48.9,37.0,64,30.15,10.0,SW,3.5,-,N/A,,Clear,220,2014-01-19 03:53:00
10:53 PM,48.0,39.0,71,30.14,10.0,SW,3.5,-,N/A,,Clear,220,2014-01-19 04:53:00
11:53 PM,50.0,42.1,74,30.12,10.0,SSW,4.6,-,N/A,,Clear,210,2014-01-19 05:53:00